»·PEaware :: SWA1452 KBUR-KLAS

SWA1452 :: KBUR-KLAS

FLIGHT INFORMATION

Flight Status: Arrived
Operator:
Southwest Airlines
More flights by this operator :: More flights under this callsign
Pilot: Ben F. (2808)
Aircraft: BOEING 737-300
(B733)
More flights by this aircraft type
Origin: KBUR Bob Hope-Burbank
United States
Destination: KLAS McCarran Intl
United States
More flights between these airports :: More routes between these airports
Route: +SLAPP1 MISEN KEPEC6
File this flight plan on PilotEdge
Remarks: PBN / A1B3B4B5D3D4 NAV / RNVD1E2A1 REG / N372SB RMK / SIMBRIEF
Altitude:
(Current/Filed)
27,000ft
Speed:
(Current/Filed)
411kts
Departed: 26-Nov-17 08:54 AM
Arrived: 26-Nov-17 09:40 AM
Distance/Time
Traveled:
194nm/0:46
Distance/Time
To Go:
Arrived

Flight Plot

Page will automatically refresh every two minutes.

Flight plan parsing failed; only flown route is shown


Map Options




Map Legend


Flown Route
Filed Route
Departure Airport
Arrival Airport
Navaid (VOR, NDB)
Fix

Horizontal Profiles

Position Reports

Time Latitude Longitude Heading Altitude Ground
Speed
26-Nov-17 08:38 34.196860 -118.351979 180 783ft 0kts
26-Nov-17 08:39 34.196860 -118.351979 180 783ft 0kts
26-Nov-17 08:40 34.196860 -118.351979 180 783ft 0kts
26-Nov-17 08:41 34.196860 -118.351979 180 783ft 0kts
26-Nov-17 08:42 34.196860 -118.351979 180 783ft 0kts
26-Nov-17 08:43 34.196860 -118.351979 180 783ft 0kts
26-Nov-17 08:44 34.196860 -118.351979 180 783ft 0kts
26-Nov-17 08:45 34.196860 -118.351979 180 783ft 0kts
26-Nov-17 08:46 34.196860 -118.351979 180 783ft 0kts
26-Nov-17 08:47 34.196860 -118.351979 180 783ft 0kts
26-Nov-17 08:48 34.196860 -118.351979 180 783ft 0kts
26-Nov-17 08:49 34.196860 -118.351979 180 783ft 0kts
26-Nov-17 08:50 34.196860 -118.351979 180 783ft 0kts
26-Nov-17 08:51 34.196860 -118.351979 180 783ft 0kts
26-Nov-17 08:52 34.196983 -118.351981 183 783ft 2kts
26-Nov-17 08:53 34.197180 -118.351633 271 783ft 0kts
26-Nov-17 08:54 34.197180 -118.351633 271 783ft 0kts
26-Nov-17 08:55 34.197188 -118.352447 269 783ft 5kts
26-Nov-17 08:56 34.199679 -118.355617 347 783ft 27kts
26-Nov-17 08:57 34.207011 -118.357637 347 783ft 27kts
26-Nov-17 08:58 34.211618 -118.359113 310 783ft 0kts
26-Nov-17 08:59 34.207862 -118.359239 167 783ft 88kts
26-Nov-17 09:00 34.167696 -118.361897 216 2784ft 147kts
26-Nov-17 09:01 34.134220 -118.396663 230 4042ft 204kts
26-Nov-17 09:02 34.155231 -118.453834 349 5306ft 263kts
26-Nov-17 09:03 34.222331 -118.465393 351 7987ft 279kts
26-Nov-17 09:04 34.290212 -118.436851 26 10786ft 288kts
26-Nov-17 09:05 34.362804 -118.384246 29 12706ft 328kts
26-Nov-17 09:06 34.451729 -118.337115 19 14279ft 374kts
26-Nov-17 09:07 34.537990 -118.257826 39 16279ft 403kts
26-Nov-17 09:08 34.625863 -118.169701 39 18459ft 418kts
26-Nov-17 09:09 34.679249 -118.050756 83 19237ft 417kts
26-Nov-17 09:10 34.695481 -117.913859 89 19847ft 417kts
26-Nov-17 09:11 34.703789 -117.772243 89 21847ft 428kts
26-Nov-17 09:12 34.709773 -117.626069 90 23627ft 440kts
26-Nov-17 09:13 34.721879 -117.475955 73 25198ft 459kts
26-Nov-17 09:14 34.762387 -117.327739 74 26624ft 473kts
26-Nov-17 09:15 34.802330 -117.176810 74 27183ft 471kts
26-Nov-17 09:16 34.842233 -117.025301 74 27185ft 471kts
26-Nov-17 09:17 34.881677 -116.874383 74 27186ft 472kts
26-Nov-17 09:18 34.922012 -116.722511 66 27172ft 474kts
26-Nov-17 09:19 34.997725 -116.589840 55 26210ft 478kts
26-Nov-17 09:20 35.072025 -116.458140 55 24815ft 468kts
26-Nov-17 09:21 35.150738 -116.343101 44 24181ft 462kts
26-Nov-17 09:22 35.238685 -116.233337 45 23998ft 469kts
26-Nov-17 09:23 35.327058 -116.122283 45 22002ft 443kts
26-Nov-17 09:24 35.410558 -116.017012 46 19679ft 422kts
26-Nov-17 09:25 35.490607 -115.915781 46 17189ft 408kts
26-Nov-17 09:26 35.567881 -115.817768 46 14804ft 392kts
26-Nov-17 09:27 35.640845 -115.724955 46 13103ft 359kts
26-Nov-17 09:28 35.706255 -115.641017 46 12998ft 338kts
26-Nov-17 09:29 35.778773 -115.573606 359 12990ft 330kts
26-Nov-17 09:30 35.870314 -115.569247 358 12991ft 330kts
26-Nov-17 09:31 35.961227 -115.558464 27 13000ft 332kts
26-Nov-17 09:32 36.001802 -115.468255 68 12105ft 293kts
26-Nov-17 09:33 36.029601 -115.377818 80 10955ft 268kts
26-Nov-17 09:34 36.024631 -115.286948 95 10185ft 272kts
26-Nov-17 09:35 36.018035 -115.195363 94 8914ft 261kts
26-Nov-17 09:36 36.012187 -115.109739 94 8078ft 236kts
26-Nov-17 09:37 36.007105 -115.028919 94 7988ft 238kts
26-Nov-17 09:38 36.002150 -114.945084 94 6566ft 239kts
26-Nov-17 09:39 36.014918 -114.878946 17 6149ft 202kts
26-Nov-17 09:40 36.066552 -114.887023 300 4980ft 194kts
26-Nov-17 09:41 36.074175 -114.951724 269 3894ft 191kts
26-Nov-17 09:42 36.073656 -115.016810 269 3797ft 191kts
26-Nov-17 09:43 36.073648 -115.076429 270 3000ft 154kts
26-Nov-17 09:44 36.073644 -115.128226 270 2210ft 150kts
26-Nov-17 09:45 36.075399 -115.146554 355 2187ft 0kts
26-Nov-17 09:46 36.077250 -115.146568 354 2188ft 1kts
26-Nov-17 09:47 36.079489 -115.146138 340 2187ft 8kts
26-Nov-17 09:48 36.079778 -115.146265 340 2187ft 0kts

Navigation Log

Ident Type
Flight plan parsing failed, navigation log unavailable